Time;durP1;ratioP1;P1;durP2;ratioP2;P2;SDS_P1;SDS_P2;PMS_P1;PMS_P2;Temp;Humidity;BMP_temperature;BMP_pressure;BME280_temperature;BME280_humidity;BME280_pressure;Samples;Min_cycle;Max_cycle;Signal;HPM_P1;HPM_P2
2022/11/22 00:02:05;;;;;;;6.68;5.20;;;1.90;99.90;;;;;;4994643;28;20045;-79
2022/11/22 00:04:31;;;;;;;7.38;5.00;;;1.90;99.90;;;;;;4992129;28;20056;-80
2022/11/22 00:06:56;;;;;;;8.25;4.75;;;1.90;99.90;;;;;;4988818;28;20038;-79
2022/11/22 00:09:22;;;;;;;7.57;5.38;;;1.90;99.90;;;;;;4990260;28;20030;-80
2022/11/22 00:11:48;;;;;;;9.15;5.57;;;1.90;99.90;;;;;;4959305;28;20018;-79
2022/11/22 00:14:14;;;;;;;8.30;4.82;;;1.90;99.90;;;;;;4989796;28;20393;-78
2022/11/22 00:16:39;;;;;;;7.90;5.35;;;1.90;99.90;;;;;;4978214;28;20053;-79
2022/11/22 00:19:05;;;;;;;8.57;5.50;;;1.90;99.90;;;;;;4982599;28;20065;-79
2022/11/22 00:21:31;;;;;;;8.07;5.32;;;1.90;99.90;;;;;;4967696;28;20033;-79
2022/11/22 00:23:57;;;;;;;8.20;5.15;;;1.90;99.90;;;;;;4985340;28;20038;-77
2022/11/22 00:26:24;;;;;;;7.75;5.32;;;1.90;99.90;;;;;;4995142;28;20030;-79
2022/11/22 00:28:50;;;;;;;9.02;5.53;;;1.90;99.90;;;;;;4963280;28;20587;-79
2022/11/22 00:31:15;;;;;;;9.38;5.45;;;1.90;99.90;;;;;;4995588;28;20102;-79
2022/11/22 00:33:41;;;;;;;5.90;4.57;;;1.90;99.90;;;;;;4991060;28;20043;-79
2022/11/22 00:36:07;;;;;;;8.20;5.10;;;1.90;99.90;;;;;;4979164;28;20041;-79
2022/11/22 00:38:33;;;;;;;7.18;5.43;;;2.00;99.90;;;;;;4970123;28;20148;-80
2022/11/22 00:40:58;;;;;;;7.15;4.75;;;1.90;99.90;;;;;;4988230;28;20038;-79
2022/11/22 00:43:24;;;;;;;8.13;4.60;;;1.90;99.90;;;;;;4952741;28;20584;-80
2022/11/22 00:45:50;;;;;;;7.88;4.72;;;1.90;99.90;;;;;;4979067;28;20117;-80
2022/11/22 00:48:16;;;;;;;9.50;4.93;;;1.80;99.90;;;;;;4997329;28;20073;-78
2022/11/22 00:50:41;;;;;;;6.32;4.50;;;1.80;99.90;;;;;;5007495;28;20088;-78
2022/11/22 00:53:07;;;;;;;7.03;4.63;;;1.80;99.90;;;;;;4994646;28;20069;-81
2022/11/22 00:55:33;;;;;;;5.95;4.72;;;1.80;99.90;;;;;;4995123;28;20125;-78
2022/11/22 00:57:59;;;;;;;7.15;4.63;;;1.80;99.90;;;;;;5004803;28;20034;-79
2022/11/22 01:00:24;;;;;;;7.63;4.68;;;1.80;99.90;;;;;;4992495;28;20034;-79
2022/11/22 01:02:50;;;;;;;6.80;4.45;;;1.80;99.90;;;;;;4983149;28;20079;-77
2022/11/22 01:05:16;;;;;;;6.43;4.57;;;1.70;99.90;;;;;;4998377;28;20031;-78
2022/11/22 01:07:43;;;;;;;6.82;4.20;;;1.70;99.90;;;;;;5002826;28;20622;-79
2022/11/22 01:10:09;;;;;;;5.97;4.55;;;1.70;99.90;;;;;;4997560;28;20033;-79
2022/11/22 01:12:35;;;;;;;6.43;5.03;;;1.70;99.90;;;;;;4990985;28;20034;-79
2022/11/22 01:15:01;;;;;;;4.88;3.97;;;1.80;99.90;;;;;;4972100;28;20034;-79
2022/11/22 01:17:27;;;;;;;6.15;4.45;;;1.70;99.90;;;;;;4996730;28;20045;-80
2022/11/22 01:19:53;;;;;;;9.30;4.70;;;1.70;99.90;;;;;;4985033;28;20109;-79
2022/11/22 01:22:19;;;;;;;6.82;4.70;;;1.70;99.90;;;;;;4985836;28;20084;-79
2022/11/22 01:24:44;;;;;;;8.25;4.78;;;1.70;99.90;;;;;;4993922;28;20041;-78
2022/11/22 01:27:10;;;;;;;6.35;4.55;;;1.70;99.90;;;;;;4995903;28;20093;-79
2022/11/22 01:29:36;;;;;;;5.82;4.43;;;1.70;99.90;;;;;;4977398;28;20045;-78
2022/11/22 01:32:02;;;;;;;6.28;4.72;;;1.70;99.90;;;;;;4968152;28;20471;-79
2022/11/22 01:34:28;;;;;;;7.20;4.80;;;1.70;99.90;;;;;;4989425;28;20038;-79
2022/11/22 01:36:53;;;;;;;7.63;4.60;;;1.70;99.90;;;;;;4984787;28;20034;-79
2022/11/22 01:39:19;;;;;;;6.55;4.38;;;1.70;99.90;;;;;;4980152;28;20068;-79
2022/11/22 01:41:45;;;;;;;9.68;4.20;;;1.70;99.90;;;;;;5006552;28;20046;-79
2022/11/22 01:44:21;;;;;;;7.85;4.82;;;1.70;99.90;;;;;;4989991;28;20045;-78
2022/11/22 01:47:10;;;;;;;6.80;3.90;;;1.70;99.90;;;;;;4991555;28;20434;-79
2022/11/22 01:49:44;;;;;;;5.55;3.58;;;1.70;99.90;;;;;;4989179;28;20161;-79
2022/11/22 01:52:18;;;;;;;7.97;4.13;;;1.70;99.90;;;;;;4997579;28;20036;-79
2022/11/22 01:54:57;;;;;;;6.38;4.03;;;1.70;99.90;;;;;;4965210;28;20299;-78
2022/11/22 01:57:28;;;;;;;6.72;4.13;;;1.80;99.90;;;;;;5000343;28;20030;-80
2022/11/22 02:00:17;;;;;;;7.25;4.60;;;1.70;99.90;;;;;;4979724;28;20042;-78
2022/11/22 02:02:49;;;;;;;5.78;3.78;;;1.80;99.90;;;;;;4977351;28;20122;-79
2022/11/22 02:05:17;;;;;;;7.07;3.47;;;1.80;99.90;;;;;;4952991;28;20037;-79
2022/11/22 02:07:49;;;;;;;8.00;3.92;;;1.80;99.90;;;;;;4993330;28;20574;-78
2022/11/22 02:10:21;;;;;;;6.43;4.07;;;1.80;99.90;;;;;;4976589;28;20062;-79
2022/11/22 02:12:49;;;;;;;6.50;4.00;;;1.90;99.90;;;;;;4994608;28;20026;-79
2022/11/22 02:15:15;;;;;;;8.60;4.32;;;1.80;99.90;;;;;;5003110;28;20022;-78
2022/11/22 02:17:41;;;;;;;6.30;3.78;;;1.80;99.90;;;;;;5007129;28;20026;-79
2022/11/22 02:20:07;;;;;;;5.22;3.80;;;1.90;99.90;;;;;;4980271;28;20486;-77
2022/11/22 02:22:54;;;;;;;6.68;3.90;;;1.90;99.90;;;;;;4976631;28;20552;-78
2022/11/22 02:25:31;;;;;;;5.60;3.67;;;1.90;99.90;;;;;;4997363;28;20540;-79
2022/11/22 02:27:57;;;;;;;6.63;3.38;;;1.90;99.90;;;;;;4996591;28;20054;-79
2022/11/22 02:30:24;;;;;;;5.00;3.50;;;1.90;99.90;;;;;;4999220;28;20042;-80
2022/11/22 02:32:49;;;;;;;8.63;3.85;;;1.90;99.90;;;;;;5000899;28;20408;-80
2022/11/22 02:35:22;;;;;;;4.75;3.60;;;1.90;99.90;;;;;;4991383;28;20031;-79
2022/11/22 02:37:53;;;;;;;4.93;3.70;;;1.90;99.90;;;;;;4997136;28;20584;-80
2022/11/22 02:40:20;;;;;;;7.65;3.70;;;1.90;99.90;;;;;;4999611;28;20043;-77
2022/11/22 02:43:00;;;;;;;5.25;3.65;;;1.90;99.90;;;;;;4996200;28;20061;-79
2022/11/22 02:45:26;;;;;;;8.85;4.30;;;1.90;99.90;;;;;;4999034;28;20037;-79
2022/11/22 02:47:52;;;;;;;6.72;3.85;;;1.80;99.90;;;;;;5007424;28;20060;-79
2022/11/22 02:50:18;;;;;;;6.38;4.05;;;1.80;99.90;;;;;;4981162;28;20568;-79
2022/11/22 02:52:44;;;;;;;7.93;4.15;;;1.80;99.90;;;;;;4993896;28;20505;-78
2022/11/22 02:55:09;;;;;;;6.43;4.07;;;1.80;99.90;;;;;;4991635;28;20129;-79
2022/11/22 02:57:35;;;;;;;7.13;3.88;;;1.70;99.90;;;;;;5005470;28;20030;-81
2022/11/22 03:00:01;;;;;;;8.48;4.38;;;1.70;99.90;;;;;;4984605;28;20037;-79
2022/11/22 03:02:27;;;;;;;6.43;3.67;;;1.70;99.90;;;;;;4992592;28;20174;-78
2022/11/22 03:04:52;;;;;;;8.07;4.22;;;1.70;99.90;;;;;;4960517;28;20059;-81
2022/11/22 03:07:18;;;;;;;6.75;4.30;;;1.70;99.90;;;;;;4987207;28;20041;-80
2022/11/22 03:09:44;;;;;;;4.88;3.95;;;1.70;99.90;;;;;;4978793;28;20228;-80
2022/11/22 03:12:10;;;;;;;8.88;4.00;;;1.70;99.90;;;;;;4971014;28;20411;-81
2022/11/22 03:14:35;;;;;;;7.10;4.43;;;1.60;99.90;;;;;;4976603;28;20438;-79
2022/11/22 03:17:01;;;;;;;6.03;4.25;;;1.60;99.90;;;;;;4967774;28;20122;-79
2022/11/22 03:19:27;;;;;;;5.47;4.28;;;1.60;99.90;;;;;;4967436;28;20501;-79
2022/11/22 03:21:52;;;;;;;5.65;4.13;;;1.60;99.90;;;;;;4990313;28;20034;-81
2022/11/22 03:24:19;;;;;;;8.05;4.28;;;1.60;99.90;;;;;;4987068;28;20519;-79
2022/11/22 03:26:48;;;;;;;6.20;4.15;;;1.60;99.90;;;;;;4977313;28;20062;-79
2022/11/22 03:29:16;;;;;;;5.32;4.13;;;1.60;99.90;;;;;;4973459;28;20031;-82
2022/11/22 03:31:41;;;;;;;8.18;4.30;;;1.60;99.90;;;;;;5000527;28;20088;-80
2022/11/22 03:34:07;;;;;;;7.35;4.53;;;1.60;99.90;;;;;;4982320;28;20061;-79
2022/11/22 03:36:33;;;;;;;6.40;4.43;;;1.60;99.90;;;;;;4986967;28;20718;-81
2022/11/22 03:38:59;;;;;;;8.18;3.90;;;1.70;99.90;;;;;;4988656;28;20039;-79
2022/11/22 03:41:25;;;;;;;5.15;4.03;;;1.70;99.90;;;;;;4979523;28;20043;-80
2022/11/22 03:43:50;;;;;;;7.53;4.40;;;1.70;99.90;;;;;;4997029;28;20030;-79
2022/11/22 03:46:18;;;;;;;5.93;3.60;;;1.70;99.90;;;;;;4988229;28;20516;-79
2022/11/22 03:48:44;;;;;;;7.38;3.92;;;1.80;99.90;;;;;;5005117;28;20069;-80
2022/11/22 03:51:10;;;;;;;8.20;4.22;;;1.80;99.90;;;;;;4992086;28;20046;-79
2022/11/22 03:53:37;;;;;;;5.50;3.70;;;1.90;99.90;;;;;;4993481;28;20033;-80
2022/11/22 03:56:04;;;;;;;5.72;3.78;;;1.90;99.90;;;;;;5000524;28;20023;-81
2022/11/22 03:58:30;;;;;;;6.18;3.80;;;1.90;99.90;;;;;;4997636;28;20112;-80
2022/11/22 04:00:56;;;;;;;6.75;3.90;;;1.90;99.90;;;;;;5000439;28;20030;-80
2022/11/22 04:03:22;;;;;;;6.68;4.05;;;1.90;99.90;;;;;;4970221;28;20625;-80
2022/11/22 04:05:48;;;;;;;8.00;4.25;;;1.90;99.90;;;;;;4975462;28;20372;-80
2022/11/22 04:08:14;;;;;;;7.25;4.28;;;2.00;99.90;;;;;;4991287;28;20185;-80
2022/11/22 04:10:40;;;;;;;6.03;3.85;;;2.00;99.90;;;;;;4993863;28;20045;-79
2022/11/22 04:13:05;;;;;;;7.88;4.63;;;2.00;99.90;;;;;;5006010;28;20056;-79
2022/11/22 04:15:31;;;;;;;7.03;3.70;;;2.00;99.90;;;;;;4979223;28;20061;-79
2022/11/22 04:17:57;;;;;;;5.47;3.97;;;2.00;99.90;;;;;;4961813;28;20041;-80
2022/11/22 04:23:21;;;;;;;5.93;3.78;;;2.00;99.90;;;;;;4998880;28;20042;-80
2022/11/22 04:25:52;;;;;;;7.30;4.13;;;2.00;99.90;;;;;;4992824;28;20070;-81
2022/11/22 04:28:20;;;;;;;6.85;4.18;;;2.00;99.90;;;;;;4993907;28;20042;-82
2022/11/22 04:33:31;;;;;;;9.55;4.05;;;2.00;99.90;;;;;;4989738;28;20586;-81
2022/11/22 04:35:57;;;;;;;6.53;4.15;;;2.00;99.90;;;;;;4965727;28;20030;-81
2022/11/22 04:38:23;;;;;;;7.35;4.10;;;2.10;99.90;;;;;;4986954;28;20113;-81
2022/11/22 04:40:49;;;;;;;8.70;4.65;;;2.10;99.90;;;;;;4984351;28;20483;-80
2022/11/22 04:46:07;;;;;;;6.53;4.40;;;2.10;99.90;;;;;;4993623;28;20540;-78
2022/11/22 04:48:33;;;;;;;7.25;4.97;;;2.10;99.90;;;;;;4990704;28;20034;-81
2022/11/22 04:53:44;;;;;;;7.25;4.43;;;1.90;99.90;;;;;;4969034;28;20133;-81
2022/11/22 04:56:10;;;;;;;5.97;4.45;;;2.00;99.90;;;;;;4991240;28;20133;-81
2022/11/22 04:58:36;;;;;;;5.28;4.10;;;2.00;99.90;;;;;;5004875;28;20045;-80
2022/11/22 05:01:02;;;;;;;7.60;4.93;;;2.00;99.90;;;;;;4987083;28;20035;-78
2022/11/22 05:03:28;;;;;;;6.60;4.63;;;2.00;99.90;;;;;;5005267;28;20034;-80
2022/11/22 05:05:54;;;;;;;7.97;5.35;;;2.10;99.90;;;;;;4989248;28;20030;-80
2022/11/22 05:08:20;;;;;;;8.45;4.82;;;2.10;99.90;;;;;;4989177;28;20046;-79
2022/11/22 05:10:56;;;;;;;8.65;5.35;;;2.10;99.90;;;;;;5000549;28;20084;-80
2022/11/22 05:13:27;;;;;;;10.52;5.18;;;2.10;99.90;;;;;;4988961;28;20027;-79
2022/11/22 05:15:53;;;;;;;7.20;4.70;;;2.10;99.90;;;;;;4997482;28;20072;-79
2022/11/22 05:18:20;;;;;;;7.28;5.05;;;2.10;99.90;;;;;;4999158;28;20505;-80
2022/11/22 05:20:46;;;;;;;6.75;5.00;;;2.10;99.90;;;;;;4978812;28;20030;-80
2022/11/22 05:25:56;;;;;;;7.83;5.00;;;2.10;99.90;;;;;;4999493;28;20034;-80
2022/11/22 05:28:22;;;;;;;7.65;5.13;;;2.10;99.90;;;;;;4965841;28;20277;-79
2022/11/22 05:30:48;;;;;;;6.65;5.20;;;2.10;99.90;;;;;;4994908;28;20038;-80
2022/11/22 05:33:14;;;;;;;8.93;4.70;;;2.20;99.90;;;;;;4992772;28;20088;-80
2022/11/22 05:35:40;;;;;;;7.53;5.50;;;2.20;99.90;;;;;;4991709;28;20037;-80
2022/11/22 05:38:05;;;;;;;11.07;6.10;;;2.20;99.90;;;;;;4985852;28;20035;-80
2022/11/22 05:40:31;;;;;;;9.00;5.93;;;2.20;99.90;;;;;;4972921;28;20053;-80
2022/11/22 05:42:58;;;;;;;9.27;5.70;;;2.20;99.90;;;;;;5006569;28;20038;-79
2022/11/22 05:45:24;;;;;;;9.15;5.88;;;2.20;99.90;;;;;;4980979;28;20125;-79
2022/11/22 05:47:49;;;;;;;9.80;6.07;;;2.10;99.90;;;;;;4973381;28;20198;-80
2022/11/22 05:50:15;;;;;;;8.13;5.95;;;2.10;99.90;;;;;;4988605;28;20034;-81
2022/11/22 05:52:53;;;;;;;7.78;5.65;;;2.10;99.90;;;;;;4989505;28;20037;-81
2022/11/22 05:55:18;;;;;;;8.00;5.72;;;2.10;99.90;;;;;;4990380;28;20034;-80
2022/11/22 05:57:44;;;;;;;7.93;5.50;;;2.20;99.90;;;;;;4989344;28;20031;-80
2022/11/22 06:00:10;;;;;;;8.43;5.63;;;2.20;99.90;;;;;;4988695;28;20134;-80
2022/11/22 06:02:37;;;;;;;7.30;5.85;;;2.10;99.90;;;;;;4969567;28;20043;-80
2022/11/22 06:05:03;;;;;;;9.52;6.10;;;2.10;99.90;;;;;;4952669;28;20455;-80
2022/11/22 06:07:29;;;;;;;8.60;6.50;;;2.20;99.90;;;;;;4976605;28;20037;-81
2022/11/22 06:09:55;;;;;;;11.05;6.53;;;2.20;99.90;;;;;;4974356;28;20448;-80
2022/11/22 06:12:20;;;;;;;15.07;6.53;;;2.10;99.90;;;;;;4957768;28;20034;-80
2022/11/22 06:14:46;;;;;;;9.50;6.97;;;2.10;99.90;;;;;;4988229;28;20034;-80
2022/11/22 06:17:12;;;;;;;9.55;6.80;;;2.20;99.90;;;;;;4994994;28;20032;-80
2022/11/22 06:19:37;;;;;;;11.18;6.97;;;2.20;99.90;;;;;;5002213;28;20085;-81
2022/11/22 06:22:03;;;;;;;13.07;7.55;;;2.10;99.90;;;;;;4997483;28;20040;-80
2022/11/22 06:24:29;;;;;;;11.90;6.85;;;2.10;99.90;;;;;;4984479;28;20069;-80
2022/11/22 06:26:55;;;;;;;12.75;6.78;;;2.00;99.90;;;;;;5004876;28;20065;-81
2022/11/22 06:29:21;;;;;;;9.23;6.20;;;2.00;99.90;;;;;;4978647;28;20093;-80
2022/11/22 06:31:47;;;;;;;9.73;7.22;;;1.90;99.90;;;;;;4977484;28;20038;-80
2022/11/22 06:34:13;;;;;;;10.50;6.75;;;1.90;99.90;;;;;;4976338;28;20108;-81
2022/11/22 06:36:38;;;;;;;13.07;7.45;;;1.80;99.90;;;;;;4974170;28;20466;-80
2022/11/22 06:39:05;;;;;;;14.95;7.63;;;1.80;99.90;;;;;;4982352;28;20038;-80
2022/11/22 06:41:33;;;;;;;13.32;8.07;;;1.90;99.90;;;;;;4988056;28;20080;-80
2022/11/22 06:44:02;;;;;;;14.27;8.45;;;1.90;99.90;;;;;;4999460;28;20117;-80
2022/11/22 06:46:28;;;;;;;14.57;7.80;;;1.90;99.90;;;;;;4987403;28;20038;-80
2022/11/22 06:48:54;;;;;;;15.60;8.68;;;2.00;99.90;;;;;;4988513;28;20034;-80
2022/11/22 06:51:22;;;;;;;13.52;8.25;;;2.10;99.90;;;;;;5004219;28;20049;-80
2022/11/22 06:53:49;;;;;;;14.40;8.55;;;2.10;99.90;;;;;;4988273;28;20026;-80
2022/11/22 06:56:19;;;;;;;15.68;8.52;;;2.10;99.90;;;;;;4992885;28;20034;-80
2022/11/22 06:58:46;;;;;;;14.80;8.05;;;2.20;99.90;;;;;;4988688;28;20026;-80
2022/11/22 07:01:32;;;;;;;15.98;7.93;;;2.20;99.90;;;;;;4982542;28;20117;-80
2022/11/22 07:03:59;;;;;;;13.48;8.43;;;2.30;99.90;;;;;;5007545;28;20682;-80
2022/11/22 07:06:30;;;;;;;15.48;8.82;;;2.30;99.90;;;;;;4987223;28;20064;-79
2022/11/22 07:08:57;;;;;;;16.52;9.25;;;2.20;99.90;;;;;;4996771;28;20064;-80
2022/11/22 07:11:26;;;;;;;11.52;8.48;;;2.30;99.90;;;;;;4974734;28;20026;-79
2022/11/22 07:13:54;;;;;;;13.45;8.27;;;2.30;99.90;;;;;;4988111;28;20038;-80
2022/11/22 07:16:20;;;;;;;13.77;8.57;;;2.40;99.90;;;;;;4973323;28;20074;-80
2022/11/22 07:18:47;;;;;;;12.32;7.70;;;2.40;99.90;;;;;;4995279;28;20034;-80
2022/11/22 07:21:14;;;;;;;10.93;7.57;;;2.30;99.90;;;;;;4996896;28;20092;-80
2022/11/22 07:23:42;;;;;;;12.50;8.10;;;2.40;99.90;;;;;;4993479;28;20030;-79
2022/11/22 07:26:08;;;;;;;13.10;8.32;;;2.30;99.90;;;;;;4984573;28;20034;-80
2022/11/22 07:28:34;;;;;;;13.48;8.43;;;2.40;99.90;;;;;;4955727;28;20037;-80
2022/11/22 07:31:02;;;;;;;16.38;9.35;;;2.40;99.90;;;;;;4990612;28;20035;-80
2022/11/22 07:33:28;;;;;;;11.85;8.32;;;2.40;99.90;;;;;;4983688;28;20033;-80
2022/11/22 07:35:54;;;;;;;16.05;9.10;;;2.40;99.90;;;;;;4992161;28;20079;-80
2022/11/22 07:38:20;;;;;;;12.38;8.48;;;2.50;99.90;;;;;;4981909;28;20491;-80
2022/11/22 07:40:46;;;;;;;13.57;8.52;;;2.50;99.90;;;;;;4987483;28;20030;-80
2022/11/22 07:43:12;;;;;;;13.93;8.77;;;2.50;99.90;;;;;;5000177;28;20046;-80
2022/11/22 07:45:38;;;;;;;15.38;9.23;;;2.50;99.90;;;;;;4981551;28;20030;-80
2022/11/22 07:48:04;;;;;;;13.38;8.55;;;2.50;99.90;;;;;;5000226;28;20164;-80
2022/11/22 07:50:30;;;;;;;14.63;8.90;;;2.50;99.90;;;;;;4955334;28;20116;-80
2022/11/22 07:52:59;;;;;;;13.30;8.65;;;2.50;99.90;;;;;;4978143;28;20038;-80
2022/11/22 07:55:26;;;;;;;12.27;8.35;;;2.50;99.90;;;;;;4997033;28;20116;-82
2022/11/22 07:57:52;;;;;;;14.75;8.57;;;2.50;99.90;;;;;;4978750;28;20026;-80
2022/11/22 08:00:19;;;;;;;14.52;9.15;;;2.60;99.90;;;;;;4995033;28;20108;-80
2022/11/22 08:02:45;;;;;;;15.73;9.18;;;2.60;99.90;;;;;;4962008;28;20038;-80
2022/11/22 08:05:11;;;;;;;14.90;9.48;;;2.60;99.90;;;;;;4990642;28;20042;-80
2022/11/22 08:07:36;;;;;;;17.48;9.85;;;2.50;99.90;;;;;;4975554;28;20383;-79
2022/11/22 08:10:03;;;;;;;15.07;9.05;;;2.50;99.90;;;;;;4951180;28;20041;-79
2022/11/22 08:12:29;;;;;;;16.17;8.95;;;2.50;99.90;;;;;;4981663;28;20503;-79
2022/11/22 08:14:54;;;;;;;11.68;8.73;;;2.50;99.90;;;;;;4980146;28;20054;-79
2022/11/22 08:17:20;;;;;;;13.05;8.20;;;2.50;99.90;;;;;;4958085;28;20038;-80
2022/11/22 08:19:48;;;;;;;16.23;9.25;;;2.40;99.90;;;;;;4975665;28;20023;-82
2022/11/22 08:22:14;;;;;;;14.43;8.82;;;2.50;99.90;;;;;;4992445;28;20124;-78
2022/11/22 08:24:39;;;;;;;13.27;8.80;;;2.50;99.90;;;;;;4961571;28;20534;-78
2022/11/22 08:27:05;;;;;;;14.27;8.60;;;2.60;99.90;;;;;;4975931;28;20038;-79
2022/11/22 08:29:31;;;;;;;13.10;8.23;;;2.60;99.90;;;;;;4949035;28;20034;-80
2022/11/22 08:31:57;;;;;;;15.88;9.60;;;2.60;99.90;;;;;;4991990;28;20031;-79
2022/11/22 08:34:23;;;;;;;15.15;9.05;;;2.60;99.90;;;;;;4977869;28;20073;-80
2022/11/22 08:36:49;;;;;;;14.93;8.77;;;2.60;99.90;;;;;;4977883;28;20406;-81
2022/11/22 08:39:15;;;;;;;15.07;9.73;;;2.60;99.90;;;;;;4996433;28;20057;-80
2022/11/22 08:41:40;;;;;;;15.25;9.13;;;2.70;99.90;;;;;;4988604;28;20049;-78
2022/11/22 08:44:06;;;;;;;15.75;9.32;;;2.60;99.90;;;;;;5002340;28;20080;-83
2022/11/22 08:46:32;;;;;;;13.20;8.13;;;2.60;99.90;;;;;;4979938;28;20703;-78
2022/11/22 08:48:58;;;;;;;13.77;8.43;;;2.60;99.90;;;;;;4996682;28;20037;-78
2022/11/22 08:51:23;;;;;;;14.10;8.85;;;2.70;99.90;;;;;;4951928;28;20105;-82
2022/11/22 08:53:49;;;;;;;14.30;9.07;;;2.70;99.90;;;;;;4964409;28;20042;-82
2022/11/22 08:56:15;;;;;;;16.00;9.80;;;2.70;99.90;;;;;;4981420;28;20647;-80
2022/11/22 08:58:41;;;;;;;16.75;9.45;;;2.70;99.90;;;;;;4998155;28;20526;-79
2022/11/22 09:01:12;;;;;;;15.27;9.38;;;2.80;99.90;;;;;;4983894;28;20093;-82
2022/11/22 09:03:39;;;;;;;16.75;8.70;;;2.80;99.90;;;;;;4991928;28;20545;-80
2022/11/22 09:06:07;;;;;;;14.60;8.40;;;2.80;99.90;;;;;;4977600;28;20033;-79
2022/11/22 09:08:34;;;;;;;14.73;8.75;;;2.70;99.90;;;;;;5003242;28;20167;-79
2022/11/22 09:11:11;;;;;;;16.98;9.40;;;2.80;99.90;;;;;;4963798;28;20319;-80
2022/11/22 09:13:37;;;;;;;16.25;9.65;;;2.70;99.90;;;;;;4989323;28;20073;-82
2022/11/22 09:16:11;;;;;;;13.52;8.98;;;2.70;99.90;;;;;;4961265;28;20034;-80
2022/11/22 09:18:38;;;;;;;16.00;9.43;;;2.70;99.90;;;;;;4982219;28;20030;-79
2022/11/22 09:21:07;;;;;;;15.02;8.70;;;2.70;99.90;;;;;;4995593;28;20112;-79
2022/11/22 09:23:34;;;;;;;18.98;9.70;;;2.70;99.90;;;;;;4972330;28;20120;-82
2022/11/22 09:26:02;;;;;;;16.80;9.50;;;2.80;99.90;;;;;;4981846;28;20058;-79
2022/11/22 09:28:28;;;;;;;14.35;8.65;;;2.80;99.90;;;;;;4989533;28;20096;-79
2022/11/22 09:31:03;;;;;;;18.63;10.40;;;2.90;99.90;;;;;;5001786;28;20026;-84
2022/11/22 09:33:29;;;;;;;16.20;9.07;;;2.80;99.90;;;;;;4969735;28;20390;-80
2022/11/22 09:36:09;;;;;;;15.15;9.80;;;2.90;99.90;;;;;;4989727;28;20334;-80
2022/11/22 09:38:36;;;;;;;17.10;10.05;;;3.00;99.90;;;;;;4977117;28;20035;-81
2022/11/22 09:41:18;;;;;;;23.30;10.45;;;2.90;99.90;;;;;;4977638;28;20446;-83
2022/11/22 09:44:05;;;;;;;18.42;10.48;;;2.90;99.90;;;;;;4994415;28;20027;-78
2022/11/22 09:46:38;;;;;;;25.02;10.65;;;2.90;99.90;;;;;;4979594;28;20058;-79
2022/11/22 09:49:27;;;;;;;21.13;10.30;;;2.90;99.90;;;;;;4992675;28;20116;-81
2022/11/22 09:52:12;;;;;;;18.13;9.85;;;3.00;99.90;;;;;;4975251;28;20057;-82
2022/11/22 09:54:50;;;;;;;18.65;10.23;;;3.10;99.90;;;;;;4987367;28;20046;-81
2022/11/22 09:57:43;;;;;;;18.48;9.50;;;3.10;99.90;;;;;;4996302;28;20109;-81
2022/11/22 10:00:24;;;;;;;18.35;10.80;;;3.00;99.90;;;;;;4993784;28;20038;-81
2022/11/22 10:03:04;;;;;;;19.73;10.50;;;3.10;99.90;;;;;;5004383;28;20033;-78
2022/11/22 10:05:47;;;;;;;19.85;10.93;;;3.10;99.90;;;;;;4994565;28;20034;-81
2022/11/22 10:08:37;;;;;;;17.63;10.25;;;3.10;99.90;;;;;;4997259;28;20049;-80
2022/11/22 10:11:29;;;;;;;18.63;10.23;;;3.10;99.90;;;;;;4980836;28;20030;-80
2022/11/22 10:14:00;;;;;;;17.92;9.55;;;3.20;99.90;;;;;;5002376;28;20030;-80
2022/11/22 10:16:49;;;;;;;20.23;10.70;;;3.20;99.90;;;;;;5000085;28;20583;-81
2022/11/22 10:19:56;;;;;;;18.50;10.15;;;3.20;99.90;;;;;;4999155;28;20068;-81
2022/11/22 10:22:24;;;;;;;19.42;9.45;;;3.30;99.90;;;;;;4932093;28;20037;-81
2022/11/22 10:24:49;;;;;;;17.65;10.13;;;3.30;99.90;;;;;;4988316;28;20040;-81
2022/11/22 10:27:15;;;;;;;16.92;9.63;;;3.40;99.90;;;;;;4988628;28;20026;-81
2022/11/22 10:29:49;;;;;;;14.63;9.50;;;3.40;99.90;;;;;;4949928;28;20693;-81
2022/11/22 10:32:24;;;;;;;20.38;10.27;;;3.50;99.90;;;;;;4980871;28;20041;-81
2022/11/22 10:35:18;;;;;;;17.48;10.40;;;3.50;99.90;;;;;;4997181;28;20037;-81
2022/11/22 10:38:07;;;;;;;18.65;10.57;;;3.50;99.90;;;;;;4978788;28;20478;-81
2022/11/22 10:41:06;;;;;;;14.13;8.93;;;3.50;99.90;;;;;;4977602;28;20426;-80
2022/11/22 10:43:42;;;;;;;21.63;10.63;;;3.50;99.90;;;;;;4996687;28;20111;-81
2022/11/22 10:46:44;;;;;;;20.52;10.60;;;3.50;99.90;;;;;;4982312;28;20452;-81
2022/11/22 10:49:45;;;;;;;19.13;11.65;;;3.50;99.90;;;;;;4969681;28;20032;-81
2022/11/22 10:52:36;;;;;;;16.65;9.93;;;3.60;99.90;;;;;;4973908;28;20046;-81
2022/11/22 10:55:21;;;;;;;17.80;10.40;;;3.60;99.90;;;;;;4984781;28;20030;-81
2022/11/22 10:57:55;;;;;;;18.35;10.25;;;3.60;99.90;;;;;;4988616;28;20438;-80
2022/11/22 11:00:24;;;;;;;21.80;10.35;;;3.70;99.90;;;;;;4986122;28;20065;-81
2022/11/22 11:02:49;;;;;;;21.33;10.05;;;3.70;99.90;;;;;;4997369;28;20029;-80
2022/11/22 11:05:19;;;;;;;20.00;11.18;;;3.70;99.90;;;;;;4995740;28;20029;-81
2022/11/22 11:07:50;;;;;;;19.92;10.57;;;3.70;99.90;;;;;;4980395;28;20136;-81
2022/11/22 11:10:33;;;;;;;21.42;10.73;;;3.70;99.90;;;;;;4966584;28;20478;-81
2022/11/22 11:13:20;;;;;;;19.92;10.77;;;3.70;99.90;;;;;;4980197;28;20046;-80
2022/11/22 11:16:09;;;;;;;20.83;11.50;;;3.80;99.90;;;;;;4967581;28;20080;-79
2022/11/22 11:18:56;;;;;;;23.95;10.77;;;3.80;99.90;;;;;;4987660;28;20544;-79
2022/11/22 11:21:22;;;;;;;20.85;10.98;;;3.80;99.90;;;;;;4963528;28;20843;-79
2022/11/22 11:23:48;;;;;;;23.67;11.95;;;3.80;99.90;;;;;;4994846;28;20035;-79
2022/11/22 11:26:22;;;;;;;28.30;11.13;;;3.80;99.90;;;;;;4980791;28;20044;-82
2022/11/22 11:28:48;;;;;;;23.27;10.82;;;3.90;99.90;;;;;;4971455;28;20061;-79
2022/11/22 11:31:17;;;;;;;22.30;11.52;;;4.00;99.90;;;;;;4974326;28;20569;-78
2022/11/22 11:33:44;;;;;;;21.23;11.25;;;4.10;99.90;;;;;;4977891;28;20038;-81
2022/11/22 11:36:20;;;;;;;19.75;10.68;;;4.20;99.90;;;;;;4979198;28;20096;-82
2022/11/22 11:38:55;;;;;;;20.45;10.60;;;4.20;99.90;;;;;;4965418;28;20082;-79
2022/11/22 11:41:31;;;;;;;18.75;10.52;;;4.20;99.90;;;;;;4997682;28;20042;-81
2022/11/22 11:44:02;;;;;;;19.13;11.18;;;4.20;99.90;;;;;;4997949;28;20076;-80
2022/11/22 11:46:43;;;;;;;18.65;10.30;;;4.30;99.90;;;;;;4969201;28;20494;-81
2022/11/22 11:49:12;;;;;;;21.23;11.70;;;4.30;99.90;;;;;;4994165;28;20037;-79
2022/11/22 11:51:48;;;;;;;22.58;11.23;;;4.40;99.90;;;;;;4993536;28;20045;-77
2022/11/22 11:54:20;;;;;;;17.30;10.38;;;4.30;99.90;;;;;;4975303;28;20729;-80
2022/11/22 11:57:00;;;;;;;25.17;11.75;;;4.40;99.90;;;;;;4971260;28;20166;-79
2022/11/22 11:59:38;;;;;;;22.48;11.13;;;4.40;99.90;;;;;;4974277;28;20511;-80
2022/11/22 12:02:18;;;;;;;17.52;10.77;;;4.50;99.90;;;;;;4981353;28;20027;-81
2022/11/22 12:05:03;;;;;;;17.65;10.32;;;4.40;99.90;;;;;;4997679;28;20037;-80
2022/11/22 12:07:35;;;;;;;21.33;11.18;;;4.40;99.90;;;;;;4997988;28;20094;-78
2022/11/22 12:10:22;;;;;;;20.42;10.85;;;4.40;99.90;;;;;;4995332;28;20043;-78
2022/11/22 12:12:52;;;;;;;18.88;10.20;;;4.40;99.90;;;;;;4977153;28;20022;-79
2022/11/22 12:15:51;;;;;;;21.08;11.38;;;4.50;99.90;;;;;;4997619;28;20368;-80
2022/11/22 12:18:22;;;;;;;19.13;11.02;;;4.60;99.90;;;;;;4988430;28;20056;-81
2022/11/22 12:21:11;;;;;;;17.55;10.38;;;4.70;99.90;;;;;;4991924;28;20030;-79
2022/11/22 12:24:00;;;;;;;18.30;10.70;;;4.70;99.90;;;;;;4993055;28;20553;-80
2022/11/22 12:26:28;;;;;;;20.83;11.73;;;4.70;99.90;;;;;;4987699;28;20034;-81
2022/11/22 12:28:56;;;;;;;18.40;10.98;;;4.70;99.90;;;;;;4989848;28;20042;-81
2022/11/22 12:31:25;;;;;;;17.58;9.73;;;4.70;99.90;;;;;;4983260;28;20051;-80
2022/11/22 12:34:14;;;;;;;17.48;10.80;;;4.70;99.90;;;;;;4973637;28;20026;-80
2022/11/22 12:36:57;;;;;;;15.13;9.63;;;4.70;99.90;;;;;;4950852;28;20046;-81
2022/11/22 12:39:26;;;;;;;19.48;10.23;;;4.80;99.90;;;;;;4987043;28;20027;-80
2022/11/22 12:42:12;;;;;;;17.80;10.50;;;4.80;99.90;;;;;;4973814;28;20039;-80
2022/11/22 12:44:42;;;;;;;17.05;9.85;;;4.80;99.90;;;;;;4973542;28;20121;-80
2022/11/22 12:47:23;;;;;;;18.15;11.15;;;4.80;99.90;;;;;;4961057;28;20062;-80
2022/11/22 12:49:58;;;;;;;18.70;9.88;;;4.80;99.90;;;;;;4973198;28;20038;-80
2022/11/22 12:52:38;;;;;;;16.38;10.10;;;4.80;99.90;;;;;;4984318;28;20030;-80
2022/11/22 12:55:25;;;;;;;13.90;9.60;;;4.80;99.90;;;;;;4986177;28;20072;-80
2022/11/22 12:58:08;;;;;;;20.27;11.00;;;4.80;99.90;;;;;;4987820;28;20065;-80
2022/11/22 13:00:58;;;;;;;19.23;10.30;;;4.80;99.90;;;;;;4979937;28;20058;-79
2022/11/22 13:03:36;;;;;;;17.10;10.48;;;4.90;99.90;;;;;;4973694;28;20029;-79
2022/11/22 13:06:06;;;;;;;32.70;17.33;;;4.90;99.90;;;;;;4976120;28;20030;-79
2022/11/22 13:08:42;;;;;;;19.70;11.82;;;4.80;99.90;;;;;;4977478;28;20030;-82
2022/11/22 13:11:14;;;;;;;24.67;13.38;;;4.80;99.90;;;;;;4984334;28;20065;-78
2022/11/22 13:13:46;;;;;;;54.33;27.83;;;4.80;99.90;;;;;;4990921;28;20064;-80
2022/11/22 13:16:13;;;;;;;22.83;13.05;;;4.90;99.90;;;;;;4997591;28;20029;-77
2022/11/22 13:18:45;;;;;;;19.77;10.23;;;4.90;99.90;;;;;;4974186;28;20098;-79